Time;durP1;ratioP1;P1;durP2;ratioP2;P2;SDS_P1;SDS_P2;PMS_P1;PMS_P2;Temp;Humidity;BMP_temperature;BMP_pressure;BME280_temperature;BME280_humidity;BME280_pressure;Samples;Min_cycle;Max_cycle;Signal;HPM_P1;HPM_P2
2022/11/19 00:00:53;;;;;;;5.80;3.03;;;5.60;99.90;;;;;;6278109;22;20360;-88
2022/11/19 00:03:41;;;;;;;7.47;3.30;;;5.60;99.90;;;;;;6279239;22;20098;-88
2022/11/19 00:06:34;;;;;;;6.90;3.00;;;5.50;99.90;;;;;;6278739;22;20024;-87
2022/11/19 00:09:21;;;;;;;5.38;2.75;;;5.50;99.90;;;;;;6278178;22;20028;-88
2022/11/19 00:15:23;;;;;;;4.15;2.58;;;5.50;99.90;;;;;;6277072;22;20037;-88
2022/11/19 00:18:10;;;;;;;6.85;2.60;;;5.50;99.90;;;;;;6279422;22;20115;-87
2022/11/19 00:21:06;;;;;;;6.80;2.83;;;5.50;99.90;;;;;;6279020;22;20028;-87
2022/11/19 00:23:54;;;;;;;6.15;2.45;;;5.60;99.90;;;;;;6255816;22;20034;-87
2022/11/19 00:26:43;;;;;;;7.07;2.63;;;5.60;99.90;;;;;;6278316;22;20030;-86
2022/11/19 00:29:33;;;;;;;3.67;2.30;;;5.50;99.90;;;;;;6282833;22;20054;-89
2022/11/19 00:32:20;;;;;;;4.90;2.53;;;5.50;99.90;;;;;;6293991;22;20042;-86
2022/11/19 00:35:09;;;;;;;6.97;2.75;;;5.40;99.90;;;;;;6298990;22;20024;-86
2022/11/19 00:37:56;;;;;;;6.60;2.45;;;5.50;99.90;;;;;;6269544;22;20034;-88
2022/11/19 00:40:43;;;;;;;4.57;2.50;;;5.40;99.90;;;;;;6275974;22;20034;-86
2022/11/19 00:43:46;;;;;;;5.57;2.40;;;5.40;99.90;;;;;;6276582;22;20098;-88
2022/11/19 00:46:34;;;;;;;6.05;2.40;;;5.50;99.90;;;;;;6257647;22;20042;-87
2022/11/19 00:49:21;;;;;;;2.80;1.95;;;5.50;99.90;;;;;;6276892;22;20024;-88
2022/11/19 00:52:10;;;;;;;5.93;2.60;;;5.50;99.90;;;;;;6276916;22;20306;-90
2022/11/19 00:55:00;;;;;;;3.95;2.75;;;5.50;99.90;;;;;;6277738;22;20051;-91
2022/11/19 00:57:47;;;;;;;6.25;3.28;;;5.50;99.90;;;;;;6278125;22;20019;-90
2022/11/19 01:00:36;;;;;;;8.20;3.17;;;5.50;99.90;;;;;;6278046;22;20419;-90
2022/11/19 01:03:29;;;;;;;5.57;3.08;;;5.50;99.90;;;;;;6256887;22;20108;-88
2022/11/19 01:06:20;;;;;;;4.90;3.10;;;5.50;99.90;;;;;;6278909;22;20104;-87
2022/11/19 01:09:07;;;;;;;10.35;3.75;;;5.50;99.90;;;;;;6254324;22;20458;-88
2022/11/19 01:11:54;;;;;;;9.77;3.28;;;5.40;99.90;;;;;;6278837;22;20047;-89
2022/11/19 01:14:42;;;;;;;10.20;3.95;;;5.40;99.90;;;;;;6277939;22;20023;-89
2022/11/19 01:17:29;;;;;;;11.70;4.20;;;5.30;99.90;;;;;;6277695;22;20103;-88
2022/11/19 01:20:16;;;;;;;8.18;4.28;;;5.30;99.90;;;;;;6276727;22;20031;-86
2022/11/19 01:23:04;;;;;;;8.40;5.35;;;5.30;99.90;;;;;;6277781;22;20094;-90
2022/11/19 01:25:51;;;;;;;15.02;6.72;;;5.30;99.90;;;;;;6278548;22;20025;-88
2022/11/19 01:28:41;;;;;;;9.10;5.95;;;5.20;99.90;;;;;;6256401;22;20444;-89
2022/11/19 01:31:29;;;;;;;12.00;6.80;;;5.20;99.90;;;;;;6275893;22;20055;-89
2022/11/19 01:34:19;;;;;;;14.55;6.70;;;5.10;99.90;;;;;;6254350;22;20125;-88
2022/11/19 01:37:06;;;;;;;9.93;6.85;;;5.10;99.90;;;;;;6277640;22;20083;-88
2022/11/19 01:39:54;;;;;;;14.02;7.55;;;5.10;99.90;;;;;;6277668;22;20055;-86
2022/11/19 01:42:50;;;;;;;11.63;7.70;;;5.10;99.90;;;;;;6255585;22;20077;-87
2022/11/19 01:45:43;;;;;;;14.30;7.97;;;5.10;99.90;;;;;;6256747;22;20054;-86
2022/11/19 01:48:32;;;;;;;9.68;7.25;;;5.10;99.90;;;;;;6279355;22;20070;-85
2022/11/19 01:51:28;;;;;;;11.38;6.97;;;5.10;99.90;;;;;;6256646;22;20098;-90
2022/11/19 01:54:28;;;;;;;11.70;7.00;;;5.10;99.90;;;;;;6277945;22;20133;-86
2022/11/19 01:57:20;;;;;;;10.02;7.30;;;5.20;99.90;;;;;;6277225;22;20283;-86
2022/11/19 02:00:08;;;;;;;11.68;6.47;;;5.10;99.90;;;;;;6277456;22;20121;-87
2022/11/19 02:02:55;;;;;;;11.32;7.07;;;5.20;99.90;;;;;;6277633;22;20435;-87
2022/11/19 02:05:42;;;;;;;13.05;6.78;;;5.20;99.90;;;;;;6277685;22;20034;-88
2022/11/19 02:08:41;;;;;;;11.90;6.80;;;5.20;99.90;;;;;;6278103;22;20019;-88
2022/11/19 02:11:35;;;;;;;12.82;7.78;;;5.20;99.90;;;;;;6255725;22;20024;-89
2022/11/19 02:14:37;;;;;;;13.80;7.18;;;5.20;99.90;;;;;;6257503;22;20116;-89
2022/11/19 02:18:09;;;;;;;12.38;6.95;;;5.20;99.90;;;;;;6278090;22;20078;-87
2022/11/19 02:21:28;;;;;;;11.80;6.03;;;5.20;99.90;;;;;;6264451;22;20024;-89
2022/11/19 02:24:24;;;;;;;8.77;6.40;;;5.20;99.90;;;;;;6226037;22;20095;-89
2022/11/19 02:27:30;;;;;;;8.90;5.72;;;5.20;99.90;;;;;;6278579;22;20434;-88
2022/11/19 02:30:18;;;;;;;6.95;5.53;;;5.20;99.90;;;;;;6277456;22;20035;-88
2022/11/19 02:33:22;;;;;;;9.23;6.28;;;5.20;99.90;;;;;;6275377;22;20099;-88
2022/11/19 02:36:18;;;;;;;9.23;4.88;;;5.20;99.90;;;;;;6269955;22;20079;-87
2022/11/19 02:39:13;;;;;;;12.45;5.75;;;5.30;99.90;;;;;;6298998;22;20039;-85
2022/11/19 02:42:12;;;;;;;9.93;4.95;;;5.30;99.90;;;;;;6267587;22;20099;-88
2022/11/19 02:45:09;;;;;;;6.70;4.88;;;5.30;99.90;;;;;;6276038;22;20027;-89
2022/11/19 02:48:02;;;;;;;8.55;4.45;;;5.30;99.90;;;;;;6276413;22;20035;-86
2022/11/19 02:50:56;;;;;;;7.15;4.22;;;5.30;99.90;;;;;;6255696;22;20125;-87
2022/11/19 02:53:46;;;;;;;8.98;4.60;;;5.30;99.90;;;;;;6277654;22;20379;-89
2022/11/19 02:56:57;;;;;;;6.97;4.05;;;5.30;99.90;;;;;;6256117;22;20047;-87
2022/11/19 03:06:26;;;;;;;8.05;4.35;;;5.30;99.90;;;;;;6276694;22;20394;-90
2022/11/19 03:09:14;;;;;;;9.82;5.47;;;5.20;99.90;;;;;;6278608;22;20023;-88
2022/11/19 03:12:12;;;;;;;8.00;4.43;;;5.20;99.90;;;;;;6283008;22;20038;-89
2022/11/19 03:18:47;;;;;;;8.27;4.72;;;5.20;99.90;;;;;;6289735;22;20016;-87
2022/11/19 03:21:42;;;;;;;9.82;5.40;;;5.20;99.90;;;;;;6269083;22;20023;-88
2022/11/19 03:24:42;;;;;;;9.98;5.10;;;5.20;99.90;;;;;;6260732;22;20099;-88
2022/11/19 03:27:45;;;;;;;13.65;6.38;;;5.20;99.90;;;;;;6285102;22;20047;-86
2022/11/19 03:30:36;;;;;;;8.75;6.18;;;5.10;99.90;;;;;;6259014;22;20162;-88
2022/11/19 03:33:30;;;;;;;8.40;6.13;;;5.10;99.90;;;;;;6276082;22;20023;-87
2022/11/19 03:36:22;;;;;;;9.90;6.32;;;5.10;99.90;;;;;;6260993;22;20055;-87
2022/11/19 03:39:20;;;;;;;9.02;6.97;;;5.10;99.90;;;;;;6280407;22;20077;-89
2022/11/19 03:42:20;;;;;;;11.65;7.68;;;5.10;99.90;;;;;;6288420;22;20022;-89
2022/11/19 03:45:26;;;;;;;10.48;8.00;;;5.20;99.90;;;;;;6259553;22;20038;-86
2022/11/19 03:48:15;;;;;;;12.63;7.70;;;5.20;99.90;;;;;;6286338;22;20077;-85
2022/11/19 03:51:16;;;;;;;13.35;8.32;;;5.20;99.90;;;;;;6257984;22;20028;-87
2022/11/19 03:54:05;;;;;;;13.30;8.15;;;5.20;99.90;;;;;;6259410;22;20031;-87
2022/11/19 03:56:56;;;;;;;12.50;7.47;;;5.20;99.90;;;;;;6281930;22;20111;-87
2022/11/19 03:59:45;;;;;;;11.60;8.05;;;5.20;99.90;;;;;;6277484;22;20077;-87
2022/11/19 04:02:33;;;;;;;11.80;7.30;;;5.20;99.90;;;;;;6286946;22;20119;-88
2022/11/19 04:05:23;;;;;;;10.75;8.27;;;5.20;99.90;;;;;;6280136;22;20427;-89
2022/11/19 04:08:13;;;;;;;14.52;8.57;;;5.20;99.90;;;;;;6259726;22;20039;-88
2022/11/19 04:11:07;;;;;;;14.52;8.50;;;5.20;99.90;;;;;;6283524;22;20024;-88
2022/11/19 04:13:53;;;;;;;15.88;8.70;;;5.20;99.90;;;;;;6263441;22;20311;-89
2022/11/19 04:16:41;;;;;;;14.07;9.27;;;5.20;99.90;;;;;;6281123;22;20315;-90
2022/11/19 04:19:30;;;;;;;12.93;9.05;;;5.20;99.90;;;;;;6260655;22;20085;-90
2022/11/19 04:22:18;;;;;;;14.90;10.02;;;5.20;99.90;;;;;;6281208;22;20758;-87
2022/11/19 04:25:05;;;;;;;18.38;10.23;;;5.20;99.90;;;;;;6280385;22;20157;-89
2022/11/19 04:27:55;;;;;;;17.85;10.18;;;5.20;99.90;;;;;;6276630;22;20023;-88
2022/11/19 04:30:42;;;;;;;16.05;10.52;;;5.20;99.90;;;;;;6258390;22;20034;-87
2022/11/19 04:33:31;;;;;;;16.10;11.23;;;5.20;99.90;;;;;;6259626;22;20024;-86
2022/11/19 04:36:21;;;;;;;15.27;10.45;;;5.20;99.90;;;;;;6280478;22;20031;-87
2022/11/19 04:39:11;;;;;;;16.33;11.20;;;5.20;99.90;;;;;;6291165;22;20027;-89
2022/11/19 04:41:58;;;;;;;17.98;10.10;;;5.20;99.90;;;;;;6300759;22;20038;-86
2022/11/19 04:44:45;;;;;;;17.13;11.40;;;5.20;99.90;;;;;;6293925;22;20058;-88
2022/11/19 04:47:38;;;;;;;18.27;11.07;;;5.20;99.90;;;;;;6277153;22;20142;-87
2022/11/19 04:50:26;;;;;;;22.30;11.43;;;5.20;99.90;;;;;;6283861;22;20041;-88
2022/11/19 04:53:13;;;;;;;15.25;10.48;;;5.20;99.90;;;;;;6266024;22;20034;-89
2022/11/19 04:56:00;;;;;;;16.08;9.25;;;5.20;99.90;;;;;;6280079;22;20024;-88
2022/11/19 04:58:48;;;;;;;16.45;9.60;;;5.20;99.90;;;;;;6257125;22;20137;-88
2022/11/19 05:01:35;;;;;;;14.13;9.77;;;5.20;99.90;;;;;;6277457;22;20019;-87
2022/11/19 05:04:22;;;;;;;13.63;9.45;;;5.20;99.90;;;;;;6262163;22;20342;-87
2022/11/19 05:07:09;;;;;;;13.77;9.95;;;5.20;99.90;;;;;;6279051;22;20023;-88
2022/11/19 05:10:00;;;;;;;12.27;9.18;;;5.20;99.90;;;;;;6276891;22;20128;-86
2022/11/19 05:12:47;;;;;;;14.38;9.43;;;5.20;99.90;;;;;;6278647;22;20032;-87
2022/11/19 05:15:34;;;;;;;17.92;11.15;;;5.20;99.90;;;;;;6261557;22;20039;-89
2022/11/19 05:18:22;;;;;;;12.80;8.48;;;5.20;99.90;;;;;;6276314;22;20311;-88
2022/11/19 05:21:09;;;;;;;13.30;8.85;;;5.30;99.90;;;;;;6275936;22;20051;-87
2022/11/19 05:23:56;;;;;;;15.30;9.50;;;5.20;99.90;;;;;;6277035;22;20423;-88
2022/11/19 05:26:46;;;;;;;13.93;9.82;;;5.20;99.90;;;;;;6278052;22;20127;-89
2022/11/19 05:29:35;;;;;;;12.60;8.98;;;5.30;99.90;;;;;;6277004;22;20037;-89
2022/11/19 05:32:25;;;;;;;14.15;9.93;;;5.30;99.90;;;;;;6277660;22;20485;-87
2022/11/19 05:35:12;;;;;;;13.05;9.07;;;5.20;99.90;;;;;;6278608;22;20113;-88
2022/11/19 05:37:59;;;;;;;15.30;9.15;;;5.30;99.90;;;;;;6274607;22;20019;-86
2022/11/19 05:40:46;;;;;;;15.25;9.23;;;5.30;99.90;;;;;;6275451;22;20382;-89
2022/11/19 05:43:33;;;;;;;12.70;8.77;;;5.30;99.90;;;;;;6256885;22;20103;-87
2022/11/19 05:46:20;;;;;;;13.55;9.15;;;5.20;99.90;;;;;;6276663;22;20074;-88
2022/11/19 05:49:08;;;;;;;15.80;9.63;;;5.20;99.90;;;;;;6275676;22;20043;-86
2022/11/19 05:51:56;;;;;;;13.70;9.38;;;5.30;99.90;;;;;;6256873;22;20304;-86
2022/11/19 05:54:43;;;;;;;14.40;9.80;;;5.30;99.90;;;;;;6278641;22;20027;-88
2022/11/19 05:57:30;;;;;;;14.13;10.23;;;5.30;99.90;;;;;;6255796;22;20028;-88
2022/11/19 06:00:21;;;;;;;16.77;10.38;;;5.30;99.90;;;;;;6274954;22;20284;-88
2022/11/19 06:03:09;;;;;;;16.90;10.57;;;5.30;99.90;;;;;;6253285;22;20082;-88
2022/11/19 06:05:57;;;;;;;19.15;10.95;;;5.30;99.90;;;;;;6256234;22;20029;-87
2022/11/19 06:08:44;;;;;;;18.63;10.05;;;5.30;99.90;;;;;;6276019;22;20038;-87
2022/11/19 06:11:46;;;;;;;15.77;8.80;;;5.30;99.90;;;;;;6274338;22;20081;-87
2022/11/19 06:14:33;;;;;;;13.32;8.35;;;5.30;99.90;;;;;;6275439;22;20103;-87
2022/11/19 06:17:23;;;;;;;11.75;7.95;;;5.30;99.90;;;;;;6276090;22;20031;-87
2022/11/19 06:20:10;;;;;;;11.88;9.10;;;5.30;99.90;;;;;;6277494;22;20051;-87
2022/11/19 06:22:58;;;;;;;12.13;8.65;;;5.30;99.90;;;;;;6253151;22;20054;-87
2022/11/19 06:25:48;;;;;;;15.48;8.63;;;5.30;99.90;;;;;;6276942;22;20031;-87
2022/11/19 06:28:35;;;;;;;11.75;7.80;;;5.30;99.90;;;;;;6275921;22;20035;-85
2022/11/19 06:31:23;;;;;;;12.18;7.93;;;5.30;99.90;;;;;;6276629;22;20056;-86
2022/11/19 06:34:13;;;;;;;12.75;6.78;;;5.40;99.90;;;;;;6253714;22;20055;-87
2022/11/19 06:37:00;;;;;;;10.75;6.55;;;5.30;99.90;;;;;;6276601;22;20415;-87
2022/11/19 06:39:47;;;;;;;12.07;6.65;;;5.40;99.90;;;;;;6275654;22;20016;-83
2022/11/19 06:42:37;;;;;;;11.13;6.70;;;5.40;99.90;;;;;;6276231;22;20078;-83
2022/11/19 06:45:25;;;;;;;17.70;9.63;;;5.40;99.90;;;;;;6276791;22;20106;-83
2022/11/19 06:48:14;;;;;;;14.52;8.27;;;5.40;99.90;;;;;;6277042;22;20111;-83
2022/11/19 06:51:02;;;;;;;12.85;7.15;;;5.40;99.90;;;;;;6279851;22;20311;-86
2022/11/19 06:53:50;;;;;;;14.07;7.32;;;5.30;99.90;;;;;;6290063;22;20093;-87
2022/11/19 06:56:39;;;;;;;13.13;7.82;;;5.30;99.90;;;;;;6270954;22;20015;-86
2022/11/19 06:59:28;;;;;;;9.45;7.32;;;5.40;99.90;;;;;;6289413;22;20435;-87
2022/11/19 07:02:15;;;;;;;12.63;8.15;;;5.30;99.90;;;;;;6276914;22;20304;-86
2022/11/19 07:05:10;;;;;;;14.85;10.23;;;5.30;99.90;;;;;;6277032;22;20041;-86
2022/11/19 07:07:59;;;;;;;11.38;6.85;;;5.30;99.90;;;;;;6277538;22;20154;-87
2022/11/19 07:10:49;;;;;;;10.43;6.28;;;5.30;99.90;;;;;;6274061;22;20024;-86
2022/11/19 07:25:52;;;;;;;9.68;6.18;;;5.50;99.90;;;;;;6123816;23;20136;-87
2022/11/19 07:29:03;;;;;;;9.65;6.07;;;5.50;99.90;;;;;;6106429;23;20056;-88
2022/11/19 07:32:39;;;;;;;6.22;4.97;;;5.60;99.90;;;;;;6102825;23;20040;-87
2022/11/19 07:36:12;;;;;;;5.32;3.80;;;5.60;99.90;;;;;;6123431;23;20026;-88
2022/11/19 07:43:22;;;;;;;6.38;3.20;;;5.70;99.90;;;;;;6095472;23;20026;-86
2022/11/19 07:46:34;;;;;;;3.47;2.83;;;6.00;99.90;;;;;;6098354;23;20037;-86
2022/11/19 07:53:44;;;;;;;3.47;2.67;;;6.40;99.90;;;;;;6097338;23;20081;-87
2022/11/19 08:10:05;;;;;;;3.65;1.63;;;6.30;99.90;;;;;;6011960;23;20451;-85
2022/11/19 09:17:49;;;;;;;4.25;3.38;;;7.00;99.90;;;;;;6004379;23;20453;-86
2022/11/19 09:25:32;;;;;;;;;;;;;;;;;;;;;
2022/11/19 09:42:02;;;;;;;2.40;1.70;;;8.60;99.90;;;;;;5974692;24;20027;-85
2022/11/19 10:22:47;;;;;;;3.03;2.20;;;7.90;1.00;;;;;;5925322;24;20024;-85
2022/11/19 10:30:39;;;;;;;3.58;1.98;;;7.80;1.00;;;;;;5882903;24;20014;-85
2022/11/19 10:42:20;;;;;;;2.85;2.00;;;8.10;99.90;;;;;;5843763;24;20386;-83
2022/11/19 10:50:17;;;;;;;4.00;2.33;;;7.90;99.90;;;;;;5844846;24;20358;-85
2022/11/19 11:01:44;;;;;;;4.55;1.70;;;7.90;99.90;;;;;;5871661;24;20026;-84
2022/11/19 11:05:17;;;;;;;3.80;1.83;;;8.80;99.90;;;;;;6007965;23;20035;-86
2022/11/19 11:09:12;;;;;;;;;;;;;;;;;;;;;
2022/11/19 12:00:34;;;;;;;4.82;2.30;;;9.00;1.00;;;;;;6096946;23;20233;-85
2022/11/19 12:04:46;;;;;;;2.85;1.50;;;8.60;1.00;;;;;;6185785;23;20040;-86
2022/11/19 12:28:35;;;;;;;2.55;1.58;;;7.80;99.90;;;;;;6185994;23;20012;-85
2022/11/19 12:31:34;;;;;;;3.85;2.42;;;7.70;99.90;;;;;;6186048;23;20152;-86
2022/11/19 12:34:33;;;;;;;7.32;3.55;;;7.70;99.90;;;;;;6186319;23;20037;-87
2022/11/19 12:37:42;;;;;;;2.83;1.67;;;7.70;99.90;;;;;;6185604;23;20049;-89
2022/11/19 12:40:51;;;;;;;3.40;2.10;;;7.70;99.90;;;;;;6185550;23;20036;-85
2022/11/19 12:43:51;;;;;;;3.38;2.05;;;7.70;99.90;;;;;;6187355;23;20032;-84
2022/11/19 12:47:05;;;;;;;3.22;2.08;;;7.60;99.90;;;;;;6186376;23;20025;-87
2022/11/19 13:41:24;;;;;;;2.58;1.95;;;7.80;99.90;;;;;;6278069;22;20026;-83
2022/11/19 18:07:32;;;;;;;;;;;6.30;99.90;;;;;;6137536;23;20638;-86
2022/11/19 18:14:44;;;;;;;9.27;5.55;;;6.20;99.90;;;;;;6129276;23;20056;-85
2022/11/19 18:23:18;;;;;;;;;;;;;;;;;;;;;
2022/11/19 18:39:42;;;;;;;12.93;6.80;;;6.00;74.50;;;;;;6039487;23;20293;-88
2022/11/19 18:47:35;;;;;;;;;;;;;;;;;;;;;
2022/11/19 18:51:27;;;;;;;11.55;7.45;;;5.70;1.00;;;;;;6078640;23;20021;-90
2022/11/19 18:59:34;;;;;;;12.70;9.82;;;5.60;1.00;;;;;;5956183;24;20019;-86
2022/11/19 19:27:49;;;;;;;;;;;;;;;;;;;;;
2022/11/19 19:35:55;;;;;;;21.20;12.48;;;5.40;99.90;;;;;;5940425;23;20179;-85
2022/11/19 19:39:53;;;;;;;15.02;8.88;;;5.40;1.00;;;;;;5919726;23;20364;-88
2022/11/19 20:21:00;;;;;;;12.77;7.78;;;5.20;99.90;;;;;;5878670;24;20014;-87
2022/11/19 20:54:53;;;;;;;19.83;10.93;;;5.20;99.90;;;;;;6233459;22;1390665;-86
2022/11/19 20:58:35;;;;;;;15.98;9.65;;;5.20;1.00;;;;;;6259834;23;20027;-87
2022/11/19 21:01:56;;;;;;;16.85;9.18;;;5.20;1.00;;;;;;6256831;23;20008;-86
2022/11/19 21:05:55;;;;;;;15.63;9.05;;;5.20;99.90;;;;;;6256872;23;20032;-85
2022/11/19 21:21:24;;;;;;;13.05;7.68;;;5.00;99.90;;;;;;6162310;23;20366;-85
2022/11/19 21:28:22;;;;;;;9.63;7.22;;;4.90;99.90;;;;;;6042532;23;20022;-86
2022/11/19 21:32:01;;;;;;;9.77;6.45;;;4.80;99.90;;;;;;6029860;23;20034;-88
2022/11/19 21:35:02;;;;;;;10.75;7.00;;;4.70;99.90;;;;;;6042311;23;20054;-87
2022/11/19 21:38:26;;;;;;;11.05;6.90;;;4.70;99.90;;;;;;6023821;23;20155;-87
2022/11/19 21:41:38;;;;;;;11.80;6.53;;;4.60;99.90;;;;;;6069497;23;20448;-88
2022/11/19 21:44:26;;;;;;;9.73;7.10;;;4.50;99.90;;;;;;6154677;23;20022;-86
2022/11/19 21:47:29;;;;;;;10.88;7.43;;;4.40;1.00;;;;;;6246395;23;20442;-86
2022/11/19 21:50:19;;;;;;;12.35;7.32;;;4.40;99.90;;;;;;6246702;23;20075;-87
2022/11/19 21:53:08;;;;;;;12.73;7.50;;;4.40;99.90;;;;;;6245634;23;20106;-87
2022/11/19 21:55:56;;;;;;;11.35;7.10;;;4.40;1.00;;;;;;6246666;23;20027;-85
2022/11/19 21:58:47;;;;;;;10.82;7.18;;;4.50;99.90;;;;;;6247605;23;20024;-86
2022/11/19 23:00:56;;;;;;;;;;;;;;;;;;;;;
2022/11/19 23:04:48;;;;;;;;;;;;;;;;;;;;;
2022/11/19 23:36:03;;;;;;;11.95;7.28;;;3.90;99.90;;;;;;6286219;22;20019;-87
2022/11/19 23:40:00;;;;;;;12.45;7.45;;;3.80;99.90;;;;;;6149979;23;20108;-85
2022/11/19 23:44:04;;;;;;;;;;;;;;;;;;;;;
2022/11/19 23:52:10;;;;;;;9.38;6.32;;;3.80;99.90;;;;;;6017053;23;20027;-87
2022/11/19 23:55:46;;;;;;;8.63;6.38;;;3.90;99.70;;;;;;6109991;23;20025;-86
